Time;durP1;ratioP1;P1;durP2;ratioP2;P2;SDS_P1;SDS_P2;PMS_P1;PMS_P2;Temp;Humidity;BMP_temperature;BMP_pressure;BME280_temperature;BME280_humidity;BME280_pressure;Samples;Min_cycle;Max_cycle;Signal;HPM_P1;HPM_P2
2020/12/15 00:00:09;;;;;;;11.50;6.18;;;4.80;99.90;;;;;;5040321;28;20390;-47
2020/12/15 00:02:36;;;;;;;8.88;5.85;;;4.80;99.90;;;;;;5045366;28;20390;-49
2020/12/15 00:05:03;;;;;;;10.43;7.38;;;4.90;99.90;;;;;;5050253;28;20071;-47
2020/12/15 00:07:29;;;;;;;11.18;6.32;;;4.90;99.90;;;;;;5050805;28;20033;-51
2020/12/15 00:09:54;;;;;;;10.48;6.05;;;4.90;99.90;;;;;;5050313;28;20025;-47
2020/12/15 00:12:20;;;;;;;11.07;6.53;;;4.80;99.90;;;;;;5050755;28;20036;-46
2020/12/15 00:14:45;;;;;;;10.50;6.85;;;4.80;99.90;;;;;;5049982;28;20021;-47
2020/12/15 00:17:11;;;;;;;9.90;6.60;;;4.90;99.90;;;;;;5050743;28;20028;-46
2020/12/15 00:19:36;;;;;;;15.98;6.93;;;4.80;99.90;;;;;;5050854;28;20085;-47
2020/12/15 00:22:02;;;;;;;12.43;6.65;;;4.90;99.90;;;;;;5050498;28;20025;-47
2020/12/15 00:24:27;;;;;;;12.88;6.97;;;4.90;99.90;;;;;;5049767;28;20110;-47
2020/12/15 00:26:55;;;;;;;13.65;7.00;;;4.90;99.90;;;;;;5050458;28;20029;-47
2020/12/15 00:29:20;;;;;;;12.75;6.50;;;4.90;99.90;;;;;;5039535;28;20040;-48
2020/12/15 00:31:45;;;;;;;11.70;7.50;;;4.80;99.90;;;;;;5030732;28;20025;-47
2020/12/15 00:34:11;;;;;;;11.57;7.10;;;4.80;99.90;;;;;;5030672;28;20087;-48
2020/12/15 00:36:36;;;;;;;13.93;7.35;;;4.80;99.90;;;;;;5030126;28;20033;-46
2020/12/15 00:39:02;;;;;;;10.13;7.10;;;4.80;99.90;;;;;;5028805;28;20053;-46
2020/12/15 00:41:28;;;;;;;10.90;7.15;;;4.90;99.90;;;;;;5030652;28;20036;-46
2020/12/15 00:43:53;;;;;;;8.10;6.20;;;4.90;99.90;;;;;;5029861;28;20017;-45
2020/12/15 00:46:19;;;;;;;10.27;6.38;;;4.90;99.90;;;;;;5029736;28;20034;-46
2020/12/15 00:48:45;;;;;;;8.93;6.43;;;4.90;99.90;;;;;;5030316;28;20104;-44
2020/12/15 00:51:18;;;;;;;7.72;5.82;;;4.90;99.90;;;;;;5030062;28;20057;-47
2020/12/15 00:53:44;;;;;;;8.60;6.15;;;5.00;99.90;;;;;;5029966;28;20551;-48
2020/12/15 00:56:11;;;;;;;7.90;5.65;;;4.90;99.90;;;;;;5029277;28;20044;-47
2020/12/15 00:58:36;;;;;;;9.38;5.60;;;5.00;99.90;;;;;;5029523;28;20025;-48
2020/12/15 01:01:04;;;;;;;7.78;5.57;;;5.00;99.90;;;;;;5029833;28;20026;-47
2020/12/15 01:03:30;;;;;;;7.10;5.30;;;5.10;99.90;;;;;;5029907;28;20025;-47
2020/12/15 01:05:56;;;;;;;7.78;5.45;;;5.10;99.90;;;;;;5028981;28;20458;-50
2020/12/15 01:08:21;;;;;;;10.13;5.70;;;5.10;99.90;;;;;;5029505;28;20445;-48
2020/12/15 01:10:47;;;;;;;9.40;5.63;;;5.20;99.90;;;;;;5029117;28;20386;-47
2020/12/15 01:13:12;;;;;;;8.50;5.13;;;5.20;99.90;;;;;;5029466;28;20022;-46
2020/12/15 01:15:38;;;;;;;6.45;4.65;;;5.20;99.90;;;;;;5028986;28;20025;-47
2020/12/15 01:18:03;;;;;;;6.35;5.18;;;5.20;99.90;;;;;;5029428;28;20029;-49
2020/12/15 01:20:29;;;;;;;5.88;4.63;;;5.30;99.90;;;;;;5029575;28;20026;-48
2020/12/15 01:22:54;;;;;;;6.20;5.55;;;5.30;99.90;;;;;;5029420;28;20105;-49
2020/12/15 01:25:19;;;;;;;6.95;4.70;;;5.30;99.90;;;;;;5028583;28;20462;-49
2020/12/15 01:27:45;;;;;;;5.55;4.68;;;5.40;99.90;;;;;;5029188;28;20116;-48
2020/12/15 01:30:10;;;;;;;7.03;4.85;;;5.40;99.90;;;;;;5029127;28;20030;-48
2020/12/15 01:32:36;;;;;;;9.00;5.15;;;5.40;99.90;;;;;;5029290;28;20029;-49
2020/12/15 01:35:01;;;;;;;7.18;5.30;;;5.40;99.90;;;;;;5027342;28;20244;-46
2020/12/15 01:37:27;;;;;;;6.85;4.95;;;5.40;99.90;;;;;;5029249;28;20256;-47
2020/12/15 01:39:52;;;;;;;7.80;5.47;;;5.40;99.90;;;;;;5028976;28;20159;-47
2020/12/15 01:42:18;;;;;;;7.53;5.20;;;5.50;99.90;;;;;;5029095;28;20029;-46
2020/12/15 01:44:43;;;;;;;8.52;5.78;;;5.50;99.90;;;;;;5028674;28;20045;-46
2020/12/15 01:47:09;;;;;;;7.43;5.82;;;5.50;99.90;;;;;;5029460;28;20034;-47
2020/12/15 01:49:35;;;;;;;7.68;5.43;;;5.60;99.90;;;;;;5029171;28;20021;-46
2020/12/15 01:52:01;;;;;;;6.85;5.53;;;5.60;99.90;;;;;;5028874;28;20044;-47
2020/12/15 01:54:26;;;;;;;8.32;5.63;;;5.60;99.90;;;;;;5028025;28;20021;-47
2020/12/15 01:56:54;;;;;;;8.65;6.38;;;5.70;99.90;;;;;;5027442;28;20203;-47
2020/12/15 01:59:21;;;;;;;8.70;6.13;;;5.70;99.90;;;;;;5028752;28;20112;-50
2020/12/15 02:01:47;;;;;;;8.75;6.18;;;5.70;99.90;;;;;;5028712;28;20037;-47
2020/12/15 02:04:13;;;;;;;8.05;6.10;;;5.80;99.90;;;;;;5028724;28;20025;-47
2020/12/15 02:06:43;;;;;;;9.90;7.03;;;5.80;99.90;;;;;;5028117;28;20021;-48
2020/12/15 02:09:09;;;;;;;9.85;6.97;;;5.90;99.90;;;;;;5028722;28;20034;-46
2020/12/15 02:11:35;;;;;;;10.45;6.80;;;5.90;99.90;;;;;;5027018;28;20041;-47
2020/12/15 02:14:01;;;;;;;10.57;6.78;;;5.90;99.90;;;;;;5028572;28;20021;-45
2020/12/15 02:16:28;;;;;;;11.60;7.93;;;6.00;99.90;;;;;;5027967;28;20071;-46
2020/12/15 02:18:54;;;;;;;10.75;8.05;;;6.00;99.90;;;;;;5028641;28;20022;-45
2020/12/15 02:21:19;;;;;;;9.73;7.55;;;6.00;99.90;;;;;;5028463;28;20035;-46
2020/12/15 02:23:45;;;;;;;10.43;7.70;;;6.00;99.90;;;;;;5028424;28;20029;-46
2020/12/15 02:26:10;;;;;;;8.73;6.53;;;6.10;99.90;;;;;;5027593;28;20029;-47
2020/12/15 02:28:36;;;;;;;10.63;7.22;;;6.10;99.90;;;;;;5028403;28;20021;-47
2020/12/15 02:31:02;;;;;;;10.93;7.07;;;6.10;99.90;;;;;;5028360;28;20397;-46
2020/12/15 02:33:28;;;;;;;11.45;8.40;;;6.20;99.90;;;;;;5028758;28;20080;-47
2020/12/15 02:35:53;;;;;;;10.30;7.40;;;6.20;99.90;;;;;;5026503;28;20429;-46
2020/12/15 02:38:19;;;;;;;10.50;7.45;;;6.20;99.90;;;;;;5028366;28;20709;-48
2020/12/15 02:40:45;;;;;;;9.30;7.53;;;6.20;99.90;;;;;;5028117;28;20040;-46
2020/12/15 02:43:11;;;;;;;10.57;7.88;;;6.30;99.90;;;;;;5028435;28;20372;-48
2020/12/15 02:45:37;;;;;;;10.23;7.13;;;6.30;99.90;;;;;;5027945;28;20028;-46
2020/12/15 02:48:03;;;;;;;9.52;7.28;;;6.30;99.90;;;;;;5028306;28;20061;-45
2020/12/15 02:50:29;;;;;;;8.77;6.55;;;6.30;99.90;;;;;;5028120;28;20025;-46
2020/12/15 02:52:54;;;;;;;9.82;7.03;;;6.30;99.90;;;;;;5028102;28;20040;-45
2020/12/15 02:55:20;;;;;;;11.70;7.88;;;6.30;99.90;;;;;;5027192;28;20033;-48
2020/12/15 02:57:49;;;;;;;10.48;7.78;;;6.30;99.90;;;;;;5028074;28;20094;-46
2020/12/15 03:00:16;;;;;;;9.45;6.93;;;6.30;99.90;;;;;;5026864;28;20128;-48
2020/12/15 03:02:41;;;;;;;8.90;7.05;;;6.30;99.90;;;;;;5028150;28;20041;-47
2020/12/15 03:05:07;;;;;;;9.80;7.18;;;6.30;99.90;;;;;;5027440;28;20031;-49
2020/12/15 03:07:33;;;;;;;10.82;7.65;;;6.30;99.90;;;;;;5029056;28;20333;-47
2020/12/15 03:09:59;;;;;;;10.30;7.80;;;6.30;99.90;;;;;;5031343;28;20040;-46
2020/12/15 03:12:25;;;;;;;8.52;6.85;;;6.30;99.90;;;;;;5031799;28;20486;-48
2020/12/15 03:14:51;;;;;;;11.50;8.40;;;6.30;99.90;;;;;;5031344;28;20076;-47
2020/12/15 03:17:17;;;;;;;12.07;8.25;;;6.30;99.90;;;;;;5031874;28;20071;-47
2020/12/15 03:19:43;;;;;;;11.52;8.57;;;6.30;99.90;;;;;;5031976;28;20029;-47
2020/12/15 03:22:13;;;;;;;12.23;9.00;;;6.30;99.90;;;;;;5031725;28;20109;-46
2020/12/15 03:24:39;;;;;;;11.38;8.18;;;6.30;99.90;;;;;;5030996;28;20511;-46
2020/12/15 03:27:04;;;;;;;10.50;8.18;;;6.30;99.90;;;;;;5031744;28;20029;-46
2020/12/15 03:29:30;;;;;;;11.02;7.93;;;6.30;99.90;;;;;;5031922;28;20057;-48
2020/12/15 03:31:55;;;;;;;8.50;6.68;;;6.40;99.90;;;;;;5031495;28;20570;-47
2020/12/15 03:34:21;;;;;;;9.48;6.63;;;6.30;99.90;;;;;;5031747;28;20383;-50
2020/12/15 03:36:46;;;;;;;8.70;6.93;;;6.30;99.90;;;;;;5031419;28;20025;-48
2020/12/15 03:39:12;;;;;;;9.60;7.47;;;6.30;99.90;;;;;;5031168;28;20033;-47
2020/12/15 03:41:37;;;;;;;8.70;6.65;;;6.30;99.90;;;;;;5030945;28;20117;-52
2020/12/15 03:44:03;;;;;;;10.38;7.43;;;6.30;99.90;;;;;;5031372;28;20686;-48
2020/12/15 03:46:29;;;;;;;9.88;7.47;;;6.30;99.90;;;;;;5030931;28;20083;-49
2020/12/15 03:48:54;;;;;;;7.90;6.03;;;6.30;99.90;;;;;;5029967;28;20378;-46
2020/12/15 03:51:20;;;;;;;8.68;6.82;;;6.30;99.90;;;;;;5031213;28;20079;-45
2020/12/15 03:53:45;;;;;;;8.98;6.35;;;6.40;99.90;;;;;;5031501;28;20049;-46
2020/12/15 03:56:11;;;;;;;9.18;7.35;;;6.40;99.90;;;;;;5030455;28;20042;-46
2020/12/15 03:58:37;;;;;;;7.40;6.20;;;6.40;99.90;;;;;;5029785;28;20029;-47
2020/12/15 04:01:04;;;;;;;8.68;6.93;;;6.50;99.90;;;;;;5030976;28;20313;-47
2020/12/15 04:03:30;;;;;;;12.15;6.07;;;6.60;99.90;;;;;;5031298;28;20064;-50
2020/12/15 04:05:56;;;;;;;8.65;6.30;;;6.60;99.90;;;;;;5030123;28;20476;-47
2020/12/15 04:08:22;;;;;;;7.53;5.88;;;6.70;99.90;;;;;;5030945;28;20049;-46
2020/12/15 04:10:49;;;;;;;7.47;5.82;;;6.70;99.90;;;;;;5030532;28;20530;-47
2020/12/15 04:13:16;;;;;;;9.18;6.40;;;6.70;99.90;;;;;;5030761;28;20013;-47
2020/12/15 04:15:41;;;;;;;8.93;6.30;;;6.70;99.90;;;;;;5030068;28;20398;-46
2020/12/15 04:18:07;;;;;;;8.13;5.95;;;6.80;99.90;;;;;;5029242;28;20025;-44
2020/12/15 04:20:32;;;;;;;8.52;5.97;;;6.80;99.90;;;;;;5029328;28;20118;-47
2020/12/15 04:22:58;;;;;;;7.18;5.88;;;6.90;99.90;;;;;;5030447;28;20041;-45
2020/12/15 04:25:23;;;;;;;10.73;7.10;;;6.90;99.90;;;;;;5029752;28;20025;-46
2020/12/15 04:27:48;;;;;;;10.20;7.32;;;7.00;99.90;;;;;;5030524;28;20034;-47
2020/12/15 04:30:14;;;;;;;9.77;6.85;;;7.00;99.90;;;;;;5030302;28;20031;-46
2020/12/15 04:32:40;;;;;;;8.05;6.53;;;6.90;99.90;;;;;;5030640;28;20022;-46
2020/12/15 04:35:05;;;;;;;9.73;6.93;;;6.90;99.90;;;;;;5028349;28;20072;-47
2020/12/15 04:37:30;;;;;;;9.25;7.35;;;6.90;99.90;;;;;;5030528;28;20485;-48
2020/12/15 04:39:56;;;;;;;8.93;6.60;;;6.90;99.90;;;;;;5030051;28;20675;-46
2020/12/15 04:42:22;;;;;;;8.55;6.40;;;6.80;99.90;;;;;;5030385;28;20025;-47
2020/12/15 04:44:48;;;;;;;6.50;5.72;;;6.90;99.90;;;;;;5029873;28;20029;-46
2020/12/15 04:47:18;;;;;;;9.35;6.50;;;6.80;99.90;;;;;;5030369;28;20026;-50
2020/12/15 04:50:07;;;;;;;8.40;6.82;;;6.90;99.90;;;;;;5028667;28;20040;-48
2020/12/15 04:52:42;;;;;;;10.05;6.80;;;6.90;99.90;;;;;;5030221;28;20035;-52
2020/12/15 04:55:07;;;;;;;8.30;5.28;;;6.90;99.90;;;;;;5029442;28;20072;-51
2020/12/15 04:57:37;;;;;;;6.03;5.00;;;6.90;99.90;;;;;;5030197;28;20125;-51
2020/12/15 05:00:05;;;;;;;10.88;7.57;;;6.90;99.90;;;;;;5028693;28;20079;-47
2020/12/15 05:02:30;;;;;;;10.32;7.47;;;6.80;99.90;;;;;;5029863;28;20471;-48
2020/12/15 05:04:57;;;;;;;10.45;7.68;;;6.80;99.90;;;;;;5027954;28;20040;-50
2020/12/15 05:07:23;;;;;;;12.07;7.35;;;6.70;99.90;;;;;;5029849;28;20057;-47
2020/12/15 05:09:48;;;;;;;10.45;7.65;;;6.70;99.90;;;;;;5034269;28;20179;-47
2020/12/15 05:12:14;;;;;;;10.05;7.20;;;6.70;99.90;;;;;;5038574;28;20481;-47
2020/12/15 05:14:39;;;;;;;11.70;7.50;;;6.70;99.90;;;;;;5039685;28;20079;-49
2020/12/15 05:17:05;;;;;;;9.93;7.68;;;6.80;99.90;;;;;;5038860;28;20021;-49
2020/12/15 05:19:30;;;;;;;9.65;7.47;;;6.70;99.90;;;;;;5039173;28;20094;-46
2020/12/15 05:22:00;;;;;;;11.00;7.35;;;6.70;99.90;;;;;;5040311;28;20583;-48
2020/12/15 05:24:28;;;;;;;9.02;6.82;;;6.70;99.90;;;;;;5038528;28;20075;-47
2020/12/15 05:26:57;;;;;;;8.32;6.63;;;6.70;99.90;;;;;;5038046;28;20490;-48
2020/12/15 05:29:23;;;;;;;9.70;6.68;;;6.60;99.90;;;;;;5037466;28;20075;-47
2020/12/15 05:31:50;;;;;;;7.40;6.20;;;6.60;99.90;;;;;;5039066;28;20041;-47
2020/12/15 05:34:26;;;;;;;9.18;6.30;;;6.60;99.90;;;;;;5038091;28;20808;-47
2020/12/15 05:36:58;;;;;;;11.88;6.60;;;6.60;99.90;;;;;;5038678;28;20454;-47
2020/12/15 05:39:26;;;;;;;9.55;6.57;;;6.60;99.90;;;;;;5037600;28;20091;-47
2020/12/15 05:42:06;;;;;;;9.38;6.32;;;6.60;99.90;;;;;;5038030;28;20079;-50
2020/12/15 05:44:35;;;;;;;8.73;6.65;;;6.60;99.90;;;;;;5037579;28;20037;-46
2020/12/15 05:47:07;;;;;;;8.52;6.78;;;6.60;99.90;;;;;;5037787;28;20104;-47
2020/12/15 05:49:34;;;;;;;7.45;6.18;;;6.60;99.90;;;;;;5036583;28;20032;-47
2020/12/15 05:52:00;;;;;;;9.60;6.10;;;6.70;99.90;;;;;;5036413;28;20024;-46
2020/12/15 05:54:27;;;;;;;9.80;6.68;;;6.70;99.90;;;;;;5037195;28;20437;-47
2020/12/15 05:57:04;;;;;;;9.27;6.88;;;6.70;99.90;;;;;;5034470;28;20535;-48
2020/12/15 05:59:30;;;;;;;8.20;6.22;;;6.70;99.90;;;;;;5035315;28;20021;-47
2020/12/15 06:02:07;;;;;;;9.15;6.25;;;6.60;99.90;;;;;;5037179;28;20063;-48
2020/12/15 06:04:34;;;;;;;7.75;5.95;;;6.60;99.90;;;;;;5037212;28;20223;-46
2020/12/15 06:07:05;;;;;;;6.93;5.88;;;6.50;99.90;;;;;;5032410;28;20060;-45
2020/12/15 06:09:31;;;;;;;;;;;6.50;99.90;;;;;;5034488;28;20025;-48
2020/12/15 06:11:58;;;;;;;8.40;6.35;;;6.50;99.90;;;;;;5038531;28;19959;-47
2020/12/15 06:14:25;;;;;;;10.00;7.63;;;6.40;99.90;;;;;;5036648;28;20013;-47
2020/12/15 06:16:51;;;;;;;9.80;6.82;;;6.40;99.90;;;;;;5038581;28;20028;-46
2020/12/15 06:19:18;;;;;;;11.48;6.80;;;6.40;99.90;;;;;;5038768;28;20136;-48
2020/12/15 06:21:52;;;;;;;9.45;6.72;;;6.40;99.90;;;;;;5037422;28;20026;-47
2020/12/15 06:24:30;;;;;;;13.93;7.68;;;6.40;99.90;;;;;;5040143;28;20021;-45
2020/12/15 06:26:59;;;;;;;11.93;7.57;;;6.50;99.90;;;;;;5049260;28;20017;-47
2020/12/15 06:29:36;;;;;;;12.68;8.00;;;6.50;99.90;;;;;;5038837;28;20030;-48
2020/12/15 06:32:07;;;;;;;10.60;7.25;;;6.50;99.90;;;;;;5030183;28;20036;-49
2020/12/15 06:34:32;;;;;;;11.02;7.53;;;6.50;99.90;;;;;;5029750;28;20033;-48
2020/12/15 06:36:59;;;;;;;10.95;7.43;;;6.50;99.90;;;;;;5030331;28;20100;-46
2020/12/15 06:39:26;;;;;;;10.38;7.05;;;6.50;99.90;;;;;;5030255;28;20041;-49
2020/12/15 06:41:59;;;;;;;11.75;8.13;;;6.50;99.90;;;;;;5032587;28;20148;-47
2020/12/15 06:44:33;;;;;;;14.00;8.32;;;6.50;99.90;;;;;;5041968;28;20104;-50
2020/12/15 06:47:01;;;;;;;12.18;8.80;;;6.50;99.90;;;;;;5037090;28;20017;-47
2020/12/15 06:49:32;;;;;;;12.15;8.45;;;6.50;99.90;;;;;;5036056;28;20037;-47
2020/12/15 06:52:00;;;;;;;14.13;9.32;;;6.40;99.90;;;;;;5037332;28;20059;-47
2020/12/15 06:54:27;;;;;;;14.20;9.05;;;6.40;99.90;;;;;;5036089;28;20009;-48
2020/12/15 06:57:09;;;;;;;10.60;8.10;;;6.40;99.90;;;;;;5035596;28;20014;-47
2020/12/15 06:59:40;;;;;;;11.75;8.23;;;6.40;99.90;;;;;;5041115;28;20021;-46
2020/12/15 07:02:32;;;;;;;10.75;7.88;;;6.40;99.90;;;;;;5042994;28;20013;-46
2020/12/15 07:05:23;;;;;;;12.52;9.20;;;6.40;99.90;;;;;;5040067;28;20395;-46
2020/12/15 07:07:54;;;;;;;11.43;8.68;;;6.40;99.90;;;;;;5043051;28;20116;-47
2020/12/15 07:10:22;;;;;;;12.27;8.63;;;6.30;99.90;;;;;;5039880;28;20034;-47
2020/12/15 07:12:49;;;;;;;12.10;8.20;;;6.30;99.90;;;;;;5033111;28;20041;-48
2020/12/15 07:15:16;;;;;;;13.77;8.40;;;6.30;99.90;;;;;;5031525;28;20018;-47
2020/12/15 07:17:47;;;;;;;11.00;7.95;;;6.40;99.90;;;;;;5033601;28;20657;-48
2020/12/15 07:20:13;;;;;;;11.15;8.50;;;6.30;99.90;;;;;;5033430;28;20596;-48
2020/12/15 07:22:38;;;;;;;11.38;7.38;;;6.30;99.90;;;;;;5033587;28;20113;-46
2020/12/15 07:25:05;;;;;;;9.05;7.07;;;6.30;99.90;;;;;;5031564;28;20391;-46
2020/12/15 07:27:32;;;;;;;9.77;7.20;;;6.30;99.90;;;;;;5033219;28;20025;-45
2020/12/15 07:29:58;;;;;;;12.52;8.90;;;6.30;99.90;;;;;;5033263;28;20676;-47
2020/12/15 07:32:25;;;;;;;12.38;8.77;;;6.40;99.90;;;;;;5033095;28;20075;-46
2020/12/15 07:35:22;;;;;;;11.02;7.88;;;6.40;99.90;;;;;;5044704;28;20037;-47
2020/12/15 07:37:49;;;;;;;13.07;8.57;;;6.40;99.90;;;;;;5032541;28;20013;-50
2020/12/15 07:40:18;;;;;;;11.68;8.02;;;6.40;99.90;;;;;;5032137;28;20029;-46
2020/12/15 07:42:58;;;;;;;13.05;8.73;;;6.40;99.90;;;;;;5032831;28;20071;-50
2020/12/15 07:45:24;;;;;;;13.65;9.25;;;6.50;99.90;;;;;;5032379;28;20072;-46
2020/12/15 07:47:51;;;;;;;11.48;8.07;;;6.50;99.90;;;;;;5032960;28;20029;-47
2020/12/15 07:50:21;;;;;;;10.85;7.93;;;6.50;99.90;;;;;;5032762;28;20029;-47
2020/12/15 07:52:47;;;;;;;12.20;8.52;;;6.50;99.90;;;;;;5032314;28;20117;-47
2020/12/15 07:55:15;;;;;;;12.15;8.60;;;6.50;99.90;;;;;;5031889;28;20108;-48
2020/12/15 07:57:42;;;;;;;13.43;8.70;;;6.60;99.90;;;;;;5032712;28;20017;-45
2020/12/15 08:00:14;;;;;;;10.40;7.88;;;6.60;99.90;;;;;;5032653;28;20030;-47
2020/12/15 08:02:41;;;;;;;9.68;7.05;;;6.60;99.90;;;;;;5032638;28;20033;-49
2020/12/15 08:05:19;;;;;;;9.80;7.00;;;6.70;99.90;;;;;;5031958;28;20029;-47
2020/12/15 08:07:53;;;;;;;13.65;7.05;;;6.80;99.90;;;;;;5031170;28;20060;-49
2020/12/15 08:10:26;;;;;;;8.93;6.68;;;6.80;99.90;;;;;;5032189;28;20038;-49
2020/12/15 08:12:55;;;;;;;9.65;7.30;;;6.90;99.90;;;;;;5032517;28;20029;-46
2020/12/15 08:15:22;;;;;;;10.50;7.10;;;6.90;99.90;;;;;;5031776;28;20049;-47
2020/12/15 08:17:49;;;;;;;10.23;7.15;;;7.00;99.90;;;;;;5031020;28;20444;-48
2020/12/15 08:20:15;;;;;;;11.90;7.38;;;7.00;99.90;;;;;;5032094;28;20107;-45
2020/12/15 08:22:43;;;;;;;12.60;8.25;;;7.10;99.90;;;;;;5032094;28;20057;-47
2020/12/15 08:25:14;;;;;;;13.57;8.25;;;7.10;99.90;;;;;;5031622;28;20034;-46
2020/12/15 08:27:39;;;;;;;13.73;8.73;;;7.10;99.90;;;;;;5030623;28;20552;-47
2020/12/15 08:30:16;;;;;;;12.88;7.90;;;7.20;99.90;;;;;;5032042;28;20038;-48
2020/12/15 08:32:50;;;;;;;11.05;7.65;;;7.20;99.90;;;;;;5031980;28;20021;-50
2020/12/15 08:35:23;;;;;;;10.93;6.95;;;7.30;99.90;;;;;;5031452;28;20040;-49
2020/12/15 08:37:57;;;;;;;10.32;7.03;;;7.30;99.90;;;;;;5032012;28;20421;-46
2020/12/15 08:40:22;;;;;;;7.88;5.78;;;7.40;99.90;;;;;;5042551;28;20025;-47
2020/12/15 08:42:48;;;;;;;9.90;6.70;;;7.40;99.90;;;;;;5038082;28;20108;-46
2020/12/15 08:45:16;;;;;;;10.18;7.22;;;7.50;99.90;;;;;;5031030;28;20083;-46
2020/12/15 08:47:43;;;;;;;10.50;6.28;;;7.50;99.90;;;;;;5044290;28;20043;-48
2020/12/15 08:50:13;;;;;;;8.50;6.13;;;7.50;99.90;;;;;;5046130;28;20049;-47
2020/12/15 08:52:39;;;;;;;8.70;5.90;;;7.50;99.90;;;;;;5040041;28;20021;-47
2020/12/15 08:55:05;;;;;;;9.75;6.68;;;7.40;99.90;;;;;;5038948;28;20029;-48
2020/12/15 08:57:31;;;;;;;8.32;6.55;;;7.40;99.90;;;;;;5036175;28;20083;-47
2020/12/15 08:59:56;;;;;;;11.05;6.70;;;7.40;99.90;;;;;;5039084;28;20032;-48
2020/12/15 09:02:22;;;;;;;9.48;6.72;;;7.40;99.90;;;;;;5036773;28;20608;-42
2020/12/15 09:04:49;;;;;;;11.02;7.85;;;7.40;99.90;;;;;;5039910;28;20033;-46
2020/12/15 09:07:17;;;;;;;13.35;7.40;;;7.40;99.90;;;;;;5041102;28;20037;-43
2020/12/15 09:09:43;;;;;;;11.15;7.63;;;7.40;99.90;;;;;;5041074;28;20112;-44
2020/12/15 09:12:10;;;;;;;10.80;7.50;;;7.40;99.90;;;;;;5046749;28;20113;-44
2020/12/15 09:14:35;;;;;;;9.25;6.70;;;7.40;99.90;;;;;;5050985;28;20567;-43
2020/12/15 09:17:01;;;;;;;9.18;6.53;;;7.40;99.90;;;;;;5046902;28;20029;-44
2020/12/15 09:19:27;;;;;;;9.00;7.28;;;7.50;99.90;;;;;;5038023;28;20017;-44
2020/12/15 09:22:06;;;;;;;10.82;7.32;;;7.50;99.90;;;;;;5039551;28;20028;-45
2020/12/15 09:24:34;;;;;;;10.02;7.68;;;7.60;99.90;;;;;;5038979;28;20021;-43
2020/12/15 09:27:00;;;;;;;7.97;6.50;;;7.60;99.90;;;;;;5041530;28;20021;-45
2020/12/15 09:29:27;;;;;;;10.32;7.28;;;7.60;99.90;;;;;;5038945;28;20083;-45
2020/12/15 09:31:54;;;;;;;9.13;6.90;;;7.70;99.90;;;;;;5039254;28;20475;-45
2020/12/15 09:34:21;;;;;;;10.20;7.30;;;7.80;99.90;;;;;;5038849;28;20263;-43
2020/12/15 09:36:57;;;;;;;8.05;6.28;;;7.90;99.90;;;;;;5039122;28;20053;-46
2020/12/15 09:39:26;;;;;;;10.82;7.20;;;7.90;99.90;;;;;;5038500;28;20014;-47
2020/12/15 09:42:00;;;;;;;12.10;7.25;;;8.00;99.90;;;;;;5037299;28;20087;-45
2020/12/15 09:44:25;;;;;;;9.98;7.30;;;8.00;99.90;;;;;;5038239;28;20072;-45
2020/12/15 09:46:51;;;;;;;10.52;7.25;;;8.10;99.90;;;;;;5039742;28;20029;-45
2020/12/15 09:49:16;;;;;;;11.48;7.07;;;8.20;99.90;;;;;;5037771;28;20052;-42
2020/12/15 09:51:42;;;;;;;12.00;6.70;;;8.30;99.90;;;;;;5039564;28;20036;-45
2020/12/15 09:54:09;;;;;;;10.23;7.78;;;8.30;99.90;;;;;;5039111;28;20022;-43
2020/12/15 09:56:37;;;;;;;8.00;6.25;;;8.40;99.90;;;;;;5035471;28;20021;-46
2020/12/15 09:59:03;;;;;;;8.05;6.05;;;8.60;99.90;;;;;;5038733;28;20045;-45
2020/12/15 10:01:28;;;;;;;8.77;6.35;;;8.60;99.90;;;;;;5041487;28;20091;-45
2020/12/15 10:03:53;;;;;;;11.05;6.10;;;8.70;99.90;;;;;;5037242;28;20029;-45
2020/12/15 10:06:20;;;;;;;8.98;6.10;;;8.80;99.90;;;;;;5038809;28;20386;-45
2020/12/15 10:08:46;;;;;;;8.60;6.38;;;8.80;99.90;;;;;;5038429;28;20498;-45
2020/12/15 10:11:18;;;;;;;10.05;6.55;;;8.80;99.90;;;;;;5037014;28;20131;-44
2020/12/15 10:13:45;;;;;;;11.93;7.00;;;8.80;99.90;;;;;;5038247;28;20021;-44
2020/12/15 10:16:10;;;;;;;18.48;8.57;;;8.80;99.90;;;;;;5036781;28;20043;-43
2020/12/15 10:18:36;;;;;;;9.82;6.95;;;8.80;99.90;;;;;;5039298;28;20092;-45
2020/12/15 10:21:03;;;;;;;10.85;7.10;;;8.90;99.90;;;;;;5036624;28;20071;-44
2020/12/15 10:23:29;;;;;;;11.15;6.85;;;9.00;99.90;;;;;;5037527;28;20025;-43
2020/12/15 10:25:56;;;;;;;9.60;6.53;;;9.00;99.90;;;;;;5038395;28;20033;-45
2020/12/15 10:28:22;;;;;;;9.38;6.28;;;9.10;99.90;;;;;;5036203;28;20029;-43
2020/12/15 10:30:47;;;;;;;8.50;6.30;;;9.10;99.90;;;;;;5038397;28;20032;-44
2020/12/15 10:33:13;;;;;;;12.15;7.00;;;9.20;99.90;;;;;;5037048;28;20427;-44
2020/12/15 10:35:38;;;;;;;8.48;5.93;;;9.20;99.90;;;;;;5038064;28;20145;-44
2020/12/15 10:38:04;;;;;;;10.18;6.15;;;9.40;99.90;;;;;;5037050;28;20025;-44
2020/12/15 10:40:29;;;;;;;9.90;6.82;;;9.50;99.90;;;;;;5036398;28;20502;-44
2020/12/15 10:42:55;;;;;;;10.75;6.18;;;9.70;99.90;;;;;;5039135;28;20032;-44
2020/12/15 10:45:20;;;;;;;10.38;6.90;;;9.80;99.90;;;;;;5036957;28;20036;-44
2020/12/15 10:47:45;;;;;;;8.90;5.68;;;9.90;99.90;;;;;;5037954;28;20197;-44
2020/12/15 10:50:11;;;;;;;8.88;6.22;;;10.00;99.90;;;;;;5037382;28;20036;-44
2020/12/15 10:52:37;;;;;;;11.50;5.90;;;10.00;99.90;;;;;;5038285;28;20359;-46
2020/12/15 10:55:03;;;;;;;8.77;6.07;;;10.00;99.90;;;;;;5038653;28;20030;-45
2020/12/15 10:57:30;;;;;;;8.23;6.45;;;10.00;99.90;;;;;;5034825;28;20382;-44
2020/12/15 10:59:56;;;;;;;7.72;6.07;;;10.00;99.90;;;;;;5032529;28;20038;-44
2020/12/15 11:02:21;;;;;;;9.50;6.00;;;9.90;99.90;;;;;;5028242;28;20040;-45
2020/12/15 11:04:46;;;;;;;7.78;5.93;;;9.90;99.90;;;;;;5027740;28;20120;-44
2020/12/15 11:07:12;;;;;;;6.97;5.55;;;9.90;99.90;;;;;;5028212;28;20037;-43
2020/12/15 11:09:37;;;;;;;6.18;4.93;;;9.90;99.90;;;;;;5028379;28;20018;-43
2020/12/15 11:12:03;;;;;;;7.15;5.53;;;9.90;99.90;;;;;;5027896;28;20386;-44
2020/12/15 11:14:29;;;;;;;7.95;5.80;;;10.00;99.90;;;;;;5027561;28;20029;-42
2020/12/15 11:16:57;;;;;;;8.45;6.00;;;10.00;99.90;;;;;;5028309;28;20022;-43
2020/12/15 11:19:23;;;;;;;7.20;5.63;;;10.10;99.90;;;;;;5030694;28;20104;-44
2020/12/15 11:21:50;;;;;;;9.95;6.50;;;10.10;99.90;;;;;;5028033;28;20355;-42
2020/12/15 11:24:16;;;;;;;10.30;5.90;;;10.10;99.90;;;;;;5030537;28;20053;-43
2020/12/15 11:26:41;;;;;;;12.60;6.63;;;10.20;99.90;;;;;;5027277;28;20060;-42
2020/12/15 11:29:07;;;;;;;9.98;5.63;;;10.30;99.90;;;;;;5031324;28;20505;-44
2020/12/15 11:31:32;;;;;;;8.50;5.85;;;10.40;99.90;;;;;;5032109;28;20108;-45
2020/12/15 11:33:58;;;;;;;6.43;4.85;;;10.30;99.90;;;;;;5048031;28;20030;-44
2020/12/15 11:36:25;;;;;;;9.05;6.07;;;10.30;99.90;;;;;;5050810;28;20569;-44
2020/12/15 11:38:50;;;;;;;8.25;5.72;;;10.30;99.90;;;;;;5051339;28;20100;-45
2020/12/15 11:41:16;;;;;;;10.68;6.82;;;10.30;99.90;;;;;;5049843;28;20112;-46
2020/12/15 11:43:41;;;;;;;12.25;6.13;;;10.40;99.90;;;;;;5051337;28;20101;-45
2020/12/15 11:46:07;;;;;;;9.43;6.32;;;10.50;99.90;;;;;;5032314;28;20138;-43
2020/12/15 11:48:32;;;;;;;10.82;6.30;;;10.50;99.90;;;;;;5031220;28;20132;-45
2020/12/15 11:50:58;;;;;;;8.57;6.30;;;10.60;99.90;;;;;;5029938;28;20095;-47
2020/12/15 11:53:23;;;;;;;12.45;7.38;;;10.70;99.90;;;;;;5031173;28;20528;-44
2020/12/15 11:55:49;;;;;;;10.82;7.25;;;10.70;99.90;;;;;;5029383;28;20023;-44
2020/12/15 11:58:14;;;;;;;8.95;6.57;;;10.80;99.90;;;;;;5033552;28;20021;-44
2020/12/15 12:00:40;;;;;;;13.52;7.20;;;10.80;99.90;;;;;;5031104;28;20040;-45
2020/12/15 12:03:05;;;;;;;12.02;7.13;;;10.80;99.90;;;;;;5031415;28;20036;-44
2020/12/15 12:05:31;;;;;;;10.48;7.07;;;10.90;99.90;;;;;;5030361;28;20479;-45
2020/12/15 12:07:57;;;;;;;12.43;7.28;;;10.90;99.90;;;;;;5030865;28;20044;-44
2020/12/15 12:10:22;;;;;;;13.95;7.45;;;10.80;99.90;;;;;;5030950;28;20401;-43
2020/12/15 12:12:48;;;;;;;13.38;8.65;;;10.80;99.90;;;;;;5041326;28;20718;-43
2020/12/15 12:15:14;;;;;;;13.05;7.85;;;10.80;99.90;;;;;;5037334;28;20017;-44
2020/12/15 12:17:40;;;;;;;10.98;6.40;;;10.70;99.90;;;;;;5030754;28;20544;-44
2020/12/15 12:20:05;;;;;;;13.40;6.78;;;10.70;99.90;;;;;;5030695;28;20033;-45
2020/12/15 12:22:31;;;;;;;9.60;7.25;;;10.60;99.90;;;;;;5029681;28;20033;-44
2020/12/15 12:24:56;;;;;;;12.07;7.03;;;10.60;99.90;;;;;;5029655;28;20029;-43
2020/12/15 12:27:23;;;;;;;11.40;7.13;;;10.60;99.90;;;;;;5035519;28;20048;-45
2020/12/15 12:29:48;;;;;;;11.00;7.03;;;10.60;99.90;;;;;;5030063;28;20060;-44
2020/12/15 12:32:14;;;;;;;14.35;7.13;;;10.50;99.90;;;;;;5029005;28;20029;-48
2020/12/15 12:34:39;;;;;;;10.93;7.07;;;10.50;99.90;;;;;;5028739;28;20033;-44
2020/12/15 12:37:08;;;;;;;14.27;6.90;;;10.50;99.90;;;;;;5029859;28;20025;-46
2020/12/15 12:39:35;;;;;;;9.70;6.50;;;10.50;99.90;;;;;;5027945;28;20030;-44
2020/12/15 12:42:01;;;;;;;13.88;6.57;;;10.50;99.90;;;;;;5028964;28;20017;-45
2020/12/15 12:44:27;;;;;;;12.68;6.55;;;10.60;99.90;;;;;;5028653;28;20030;-45
2020/12/15 12:46:52;;;;;;;9.60;7.03;;;10.60;99.90;;;;;;5028825;28;20598;-45
2020/12/15 12:49:18;;;;;;;13.30;6.63;;;10.60;99.90;;;;;;5029172;28;20702;-44